Latest Weather Observations for Willis Island

IDQ60801

Issued at 10:05 pm EST Wednesday 22 October 2014 (issued every 30 minutes, with the page automatically refreshed every 10 minutes)

About weather observations | Map of weather stations | Latest weather observations for QLD | Other Formats
Station Details ID: 200283 Name: WILLIS ISLAND Lat: -16.29 Lon: 149.97 Height: 9.29 m
Data from the previous 72 hours. | See also: Recent months at Willis Island
Date/Time
EST
Temp
°C
App
Temp
°C
Dew
Point
Rel
Hum
%
Delta-T
°C
Wind Press
QNH
hPa
Press
MSL
hPa
Rain
since 9 am
mm
Dir
 
Spd
km/h
Gust
km/h
Spd
kts
Gust
kts
22/10:00pm 24.3 20.3 17.7 66 4.1 SE 35 43 19 23 1018.1 - 0.0
22/09:30pm 24.4 20.0 17.5 65 4.3 ESE 37 43 20 23 1018.1 - 0.0
22/09:00pm 24.2 19.5 16.9 63 4.5 SE 37 43 20 23 1017.7 1017.7 0.0
22/08:30pm 24.4 19.6 16.6 61 4.8 SE 37 46 20 25 1017.7 - 0.0
22/08:00pm 24.3 18.9 15.9 59 5.1 SE 39 46 21 25 1017.4 - 0.0
22/07:30pm 24.3 18.7 17.4 65 4.3 SE 43 54 23 29 1016.9 - 0.0
22/07:00pm 24.4 18.6 17.5 65 4.3 SE 44 56 24 30 1016.5 - 0.0
22/06:30pm 24.3 18.4 16.6 62 4.7 SE 43 52 23 28 1016.2 - 0.0
22/06:00pm 24.4 19.7 17.7 66 4.2 SE 39 46 21 25 1016.0 1016.0 0.0
22/05:30pm 24.6 18.9 16.2 59 5.1 SE 41 46 22 25 1015.7 - 0.0
22/05:00pm 25.0 19.9 16.9 60 5.0 SE 39 46 21 25 1015.4 - 0.0
22/04:30pm 25.2 19.8 18.0 64 4.5 SE 43 48 23 26 1015.2 - 0.0
22/04:00pm 25.7 20.2 17.7 61 5.0 SE 43 48 23 26 1015.0 - 0.0
22/03:30pm 25.6 19.7 17.2 59 5.2 SE 44 52 24 28 1015.0 - 0.0
22/03:00pm 25.7 19.8 18.1 63 4.8 SE 46 52 25 28 1015.0 1015.0 0.0
22/02:30pm 25.6 20.0 18.7 65 4.4 SE 46 52 25 28 1015.2 - 0.0
22/02:00pm 25.8 20.7 18.6 64 4.6 SE 43 50 23 27 1015.4 - 0.0
22/01:30pm 26.5 22.3 19.0 63 4.8 SE 39 44 21 24 1015.6 - 0.0
22/01:00pm 26.2 21.1 17.8 60 5.3 SE 41 50 22 27 1015.9 - 0.0
22/12:30pm 26.6 20.7 16.8 55 6.1 SE 43 50 23 27 1016.2 - 0.0
22/12:00pm 26.8 21.3 17.6 57 5.8 SE 43 50 23 27 1016.5 1016.5 0.0
22/11:30am 27.0 21.9 17.8 57 5.8 SE 41 48 22 26 1017.0 - 0.0
22/11:00am 26.4 20.8 17.8 59 5.4 SE 44 52 24 28 1017.3 - 0.0
22/10:30am 26.6 21.4 18.8 62 5.0 SE 44 50 24 27 1017.4 - 0.0
22/10:00am 26.4 21.1 18.2 60 5.2 SE 43 50 23 27 1017.6 - 0.0
22/09:30am 25.6 20.2 18.0 63 4.8 SE 43 50 23 27 1017.7 - 0.0
22/09:00am 25.6 20.1 18.0 63 4.8 SSE 44 52 24 28 1017.7 1017.7 0.4
22/08:30am 25.0 19.9 18.5 67 4.1 SE 43 52 23 28 1017.8 - 0.4
22/08:00am 25.1 19.9 18.3 66 4.3 SE 43 52 23 28 1017.5 - 0.4
22/07:30am 24.8 19.7 18.6 68 3.9 SE 43 52 23 28 1017.1 - 0.4
22/07:00am 24.6 19.2 18.4 68 3.9 SE 44 50 24 27 1017.0 - 0.4
22/06:30am 24.3 19.5 18.4 69 3.7 SE 41 48 22 26 1016.5 - 0.4
22/06:00am 24.2 19.1 18.7 71 3.5 SE 43 50 23 27 1016.0 1016.0 0.4
22/05:30am 24.0 18.8 18.3 70 3.6 SE 43 48 23 26 1015.7 - 0.4
22/05:00am 24.0 19.5 19.0 73 3.2 SE 41 50 22 27 1015.6 - 0.4
22/04:30am 23.7 19.8 19.5 77 2.7 SE 39 46 21 25 1015.4 - 0.4
22/04:00am 23.5 19.2 19.6 79 2.5 SE 41 46 22 25 1015.2 - 0.4
22/03:30am 23.5 18.7 19.3 77 2.7 SE 43 50 23 27 1015.2 - 0.4
22/03:00am 23.3 18.5 19.7 80 2.3 SE 44 52 24 28 1015.4 1015.4 0.4
22/02:30am 23.0 18.8 19.7 82 2.1 SE 41 50 22 27 1015.7 - 0.4
22/02:00am 23.4 18.8 20.1 82 2.1 SE 44 50 24 27 1015.9 - 0.4
22/01:30am 23.6 19.5 20.8 84 1.8 SSE 43 52 23 28 1016.2 - 0.0
22/01:00am 23.1 19.7 21.3 90 1.2 SSE 41 50 22 27 1016.8 - 0.0
22/12:30am 22.8 18.4 20.6 87 1.4 SSE 44 52 24 28 1017.5 - 0.0
22/12:00am 23.6 19.5 20.7 84 1.9 SSE 43 50 23 27 1017.9 1017.9 0.0
 
Date/Time
EST
Temp
°C
App
Temp
°C
Dew
Point
Rel
Hum
%
Delta-T
°C
Wind Press
QNH
hPa
Press
MSL
hPa
Rain
since 9 am
mm
Dir
 
Spd
km/h
Gust
km/h
Spd
kts
Gust
kts
21/11:57pm 23.7 20.0 20.8 84 1.9 SSE 41 48 22 26 1018.0 - 0.0
21/11:30pm 24.3 20.6 20.0 77 2.8 SE 39 46 21 25 1018.3 - 0.0
21/11:00pm 24.2 20.5 20.0 77 2.7 SE 39 44 21 24 1018.6 - 0.0
21/10:30pm 24.2 19.7 20.0 77 2.7 SE 43 48 23 26 1018.7 - 0.0
21/10:00pm 24.4 20.4 20.2 77 2.7 SE 41 48 22 26 1018.9 - 0.0
21/09:30pm 24.4 19.8 19.7 75 3.0 SE 43 50 23 27 1018.8 - 0.0
21/09:00pm 24.6 20.3 19.6 73 3.2 SE 41 46 22 25 1018.6 1018.6 0.0
21/08:30pm 24.6 20.3 19.5 73 3.3 SE 41 46 22 25 1018.1 - 0.0
21/08:00pm 24.6 19.9 19.5 73 3.3 SE 43 50 23 27 1017.7 - 0.0
21/07:30pm 24.5 20.2 19.5 73 3.2 SE 41 48 22 26 1017.5 - 0.0
21/07:00pm 24.6 19.7 19.5 73 3.3 SE 44 52 24 28 1017.3 - 0.0
21/06:30pm 24.6 19.6 19.3 72 3.4 SE 44 54 24 29 1017.0 - 0.0
21/06:00pm 24.7 20.2 19.9 74 3.1 SE 43 50 23 27 1016.7 1016.7 0.0
21/05:30pm 25.2 20.7 19.9 72 3.4 SE 43 50 23 27 1016.5 - 0.0
21/05:00pm 25.3 20.6 19.4 70 3.8 SE 43 52 23 28 1016.2 - 0.0
21/04:30pm 25.5 20.3 18.7 66 4.3 SE 44 54 24 29 1015.7 - 0.0
21/04:00pm 25.7 20.8 19.1 67 4.2 SE 43 50 23 27 1015.6 - 0.0
21/03:30pm 26.0 21.1 19.0 65 4.5 SE 43 50 23 27 1015.5 - 0.0
21/03:00pm 26.8 22.6 19.7 65 4.6 SE 41 50 22 27 1015.5 1015.5 0.0
21/02:30pm 26.7 21.8 19.1 63 4.9 SE 43 48 23 26 1015.6 - 0.0
21/02:00pm 26.9 22.7 19.8 65 4.6 ESE 41 46 22 25 1015.8 - 0.0
21/01:30pm 26.8 22.7 19.9 66 4.5 SE 41 46 22 25 1016.0 - 0.0
21/01:00pm 27.1 23.0 19.2 62 5.1 SE 39 46 21 25 1016.4 - 0.0
21/12:30pm 27.4 23.6 19.0 60 5.4 SE 37 44 20 24 1016.9 - 0.0
21/12:00pm 27.2 23.3 19.5 62 5.0 SE 39 44 21 24 1017.2 1017.2 0.0
21/11:30am 27.3 23.2 19.9 64 4.8 SE 41 46 22 25 1017.5 - 0.0
21/11:00am 26.9 22.1 19.3 63 4.9 ESE 43 50 23 27 1017.8 - 0.0
21/10:30am 26.5 22.2 19.5 65 4.5 SE 41 46 22 25 1018.0 - 0.0
21/10:00am 26.7 22.6 19.9 66 4.4 SE 41 48 22 26 1017.9 - 0.0
21/09:30am 26.6 22.0 19.6 65 4.5 SE 43 48 23 26 1017.9 - 0.0
21/09:00am 26.7 22.7 20.1 67 4.3 SE 41 46 22 25 1017.9 1017.9 0.0
21/08:30am 26.3 23.0 20.8 71 3.6 SE 39 46 21 25 1017.6 - 0.0
21/08:00am 25.8 21.7 19.9 70 3.8 ESE 41 48 22 26 1017.5 - 0.0
21/07:54am 25.3 21.2 19.9 72 3.5 ESE 41 48 22 26 1017.4 - 0.0
21/07:30am 24.0 20.2 20.5 81 2.3 SSE 41 48 22 26 1017.3 - 0.0
21/07:00am 24.0 20.3 20.8 82 2.1 SSE 41 46 22 25 1017.1 - 0.0
21/06:30am 23.8 20.7 21.2 85 1.7 SSE 39 44 21 24 1016.6 - 0.0
21/06:00am 23.5 20.3 21.1 86 1.6 SSE 39 46 21 25 1016.2 1016.2 0.0
21/05:30am 23.7 21.1 20.6 83 2.0 SSE 35 43 19 23 1015.9 - 0.0
21/05:00am 23.5 20.5 20.7 84 1.8 SSE 37 43 20 23 1015.8 - 0.0
21/04:30am 23.6 20.5 20.5 83 2.0 SSE 37 43 20 23 1015.7 - 0.0
21/04:00am 23.8 20.8 20.7 83 2.0 SSE 37 44 20 24 1015.4 - 0.0
21/03:30am 23.7 19.6 20.8 84 1.9 SSE 43 50 23 27 1015.4 - 0.0
21/03:00am 24.2 20.3 20.3 79 2.5 SE 41 46 22 25 1015.3 1015.3 0.0
21/02:30am 24.1 22.1 21.2 84 1.9 SSE 33 39 18 21 1015.5 - 0.0
21/02:00am 24.3 21.0 20.1 77 2.7 SE 37 43 20 23 1015.6 - 0.0
21/01:30am 24.3 21.6 20.5 79 2.5 SE 35 41 19 22 1015.9 - 0.0
21/01:00am 24.3 21.0 20.1 77 2.7 SE 37 41 20 22 1016.2 - 0.0
21/12:30am 24.3 20.7 20.1 77 2.7 SE 39 44 21 24 1016.6 - 0.0
21/12:00am 24.3 21.2 20.5 79 2.5 SE 37 44 20 24 1016.9 1016.9 0.0
 
Date/Time
EST
Temp
°C
App
Temp
°C
Dew
Point
Rel
Hum
%
Delta-T
°C
Wind Press
QNH
hPa
Press
MSL
hPa
Rain
since 9 am
mm
Dir
 
Spd
km/h
Gust
km/h
Spd
kts
Gust
kts
20/11:30pm 24.5 22.1 21.0 81 2.3 SE 35 41 19 22 1017.1 - 0.0
20/11:00pm 24.4 21.8 20.6 79 2.5 SE 35 41 19 22 1017.3 - 0.0
20/10:30pm 24.4 21.8 20.7 80 2.4 SE 35 41 19 22 1017.5 - 0.0
20/10:00pm 24.4 21.3 20.4 78 2.6 SE 37 43 20 23 1017.6 - 0.0
20/09:30pm 24.4 20.9 20.4 78 2.6 SE 39 44 21 24 1017.5 - 0.0
20/09:00pm 24.5 20.8 20.0 76 2.9 SE 39 46 21 25 1017.4 1017.4 0.0
20/08:30pm 24.4 20.9 20.4 78 2.6 SE 39 43 21 23 1017.1 - 0.0
20/08:00pm 24.4 21.2 20.2 77 2.7 SE 37 43 20 23 1017.0 - 0.0
20/07:30pm 24.5 21.7 21.0 81 2.3 SE 37 44 20 24 1016.7 - 0.0
20/07:00pm 24.6 20.4 19.8 74 3.1 SE 41 46 22 25 1016.5 - 0.0
20/06:30pm 24.3 20.4 20.3 78 2.6 SE 41 46 22 25 1016.2 - 0.0
20/06:00pm 24.6 20.3 20.3 77 2.8 SE 43 50 23 27 1016.0 1016.0 0.0
20/05:30pm 24.7 20.6 19.9 74 3.1 SE 41 48 22 26 1015.6 - 0.0
20/05:00pm 25.1 20.2 19.5 71 3.6 SE 44 52 24 28 1015.3 - 0.0
20/04:30pm 25.4 20.4 19.3 69 3.9 SE 44 54 24 29 1015.1 - 0.0
20/04:00pm 25.1 20.9 19.8 72 3.4 SE 41 48 22 26 1015.1 - 0.0
20/03:30pm 24.5 19.2 19.5 73 3.2 SE 46 54 25 29 1015.2 - 0.0
20/03:00pm 25.8 20.9 19.4 67 4.1 SE 44 54 24 29 1015.3 1015.3 0.0
20/02:30pm 26.3 22.3 20.2 69 4.0 SE 41 48 22 26 1015.5 - 0.0
20/02:00pm 26.2 22.1 19.9 68 4.1 SE 41 50 22 27 1015.6 - 0.0
20/01:30pm 25.9 21.1 19.2 66 4.3 SE 43 52 23 28 1015.8 - 0.0
20/01:00pm 25.5 21.0 20.3 73 3.4 SE 44 52 24 28 1015.9 - 0.0
20/12:30pm 25.6 20.7 20.2 72 3.5 SE 46 52 25 28 1016.3 - 0.0
20/12:00pm 24.4 20.3 20.7 80 2.4 SE 43 52 23 28 1016.8 1016.8 0.0
20/11:53am 23.9 19.7 21.0 84 1.9 SE 44 52 24 28 1017.1 - 0.0
20/11:49am 24.6 19.2 19.3 72 3.4 ESE 46 50 25 27 1017.0 - 0.0
20/11:30am 26.2 21.9 20.7 71 3.6 SE 44 50 24 27 1017.2 - 0.0
20/11:00am 25.4 20.8 20.8 75 3.0 SE 46 54 25 29 1017.5 - 0.0
20/10:30am 26.6 22.1 21.0 71 3.7 SE 46 54 25 29 1017.7 - 0.0
20/10:00am 26.1 22.7 21.4 75 3.1 SE 41 50 22 27 1017.9 - 0.0
20/09:30am 25.1 21.1 21.3 79 2.5 SE 44 50 24 27 1018.1 - 0.0
20/09:00am 25.9 21.6 20.7 73 3.4 SE 44 52 24 28 1018.1 1018.1 3.0
20/08:30am 25.4 21.1 20.7 75 3.1 SE 44 50 24 27 1018.0 - 3.0
20/08:00am 25.3 20.4 20.2 73 3.3 ESE 46 52 25 28 1017.9 - 3.0
20/07:30am 24.5 20.5 21.0 81 2.3 SE 43 50 23 27 1017.7 - 3.0
20/07:00am 24.2 19.7 21.0 82 2.1 SE 46 61 25 33 1017.4 - 3.0
20/06:30am 24.1 19.7 20.6 81 2.3 SE 44 52 24 28 1016.9 - 3.0
20/06:00am 24.1 18.4 20.1 78 2.6 SE 50 61 27 33 1016.5 1016.5 3.0
20/05:30am 23.7 19.7 20.9 84 1.8 SE 43 52 23 28 1016.1 - 3.0
20/05:00am 23.7 19.3 21.3 86 1.6 SE 46 57 25 31 1016.0 - 3.0
20/04:30am 22.5 17.8 20.7 89 1.2 ESE 46 57 25 31 1015.8 - 3.0
20/04:00am 22.1 16.8 21.0 93 0.7 ESE 50 61 27 33 1015.3 - 2.0
20/03:55am 22.9 19.6 21.5 92 0.9 ESE 41 61 22 33 1015.4 - 2.0
20/03:30am 22.6 17.0 21.2 92 0.9 ESE 52 59 28 32 1015.5 - 0.0
20/03:00am 24.0 19.1 20.3 80 2.4 SE 46 57 25 31 1015.3 1015.3 0.0
20/02:30am 23.6 19.7 21.2 86 1.6 SE 43 54 23 29 1015.6 - 0.0
20/02:00am 23.7 18.0 20.1 80 2.3 SE 50 57 27 31 1015.7 - 0.0
20/01:30am 23.2 18.9 20.7 86 1.6 ESE 44 56 24 30 1016.0 - 0.0
20/01:18am 23.7 19.1 20.0 80 2.4 SE 44 65 24 35 1016.1 - 0.0
20/01:00am 24.4 19.9 20.2 77 2.7 SE 44 52 24 28 1016.2 - 0.0
20/12:30am 24.4 19.2 20.4 78 2.6 SE 48 57 26 31 1016.6 - 0.0
20/12:00am 24.5 18.7 20.0 76 2.9 SE 50 57 27 31 1016.9 1016.9 0.0
 
Date/Time
EST
Temp
°C
App
Temp
°C
Dew
Point
Rel
Hum
%
Delta-T
°C
Wind Press
QNH
hPa
Press
MSL
hPa
Rain
since 9 am
mm
Dir
 
Spd
km/h
Gust
km/h
Spd
kts
Gust
kts
19/11:30pm 24.4 18.9 20.6 79 2.5 SE 50 57 27 31 1017.2 - 0.0
19/11:00pm 24.6 19.3 20.3 77 2.8 SE 48 57 26 31 1017.5 - 0.0
19/10:30pm 23.9 19.1 20.5 81 2.2 ESE 46 59 25 32 1017.9 - 0.0

Other Formats:

Comma delimited format used in spreadsheet applications
http://www.bom.gov.au/fwo/IDQ60801/IDQ60801.94299.axf

JavaScript Object Notation format (JSON) in row-major order
http://www.bom.gov.au/fwo/IDQ60801/IDQ60801.94299.json